Time;durP1;ratioP1;P1;durP2;ratioP2;P2;SDS_P1;SDS_P2;PMS_P1;PMS_P2;Temp;Humidity;BMP_temperature;BMP_pressure;BME280_temperature;BME280_humidity;BME280_pressure;Samples;Min_cycle;Max_cycle;Signal;HPM_P1;HPM_P2
2023/01/27 00:02:01;;;;;;;;;10.00;7.00;;;;;20.84;34.06;100929.84;5037997;28;45332;-65
2023/01/27 00:04:27;;;;;;;;;5.00;5.00;;;;;20.78;34.05;100928.09;5038088;28;45521;-64
2023/01/27 00:06:52;;;;;;;;;9.00;8.00;;;;;20.66;33.98;100930.84;5038321;28;46179;-55
2023/01/27 00:09:18;;;;;;;;;7.33;6.00;;;;;20.66;34.20;100938.81;5037908;28;46121;-65
2023/01/27 00:14:28;;;;;;;;;8.67;7.33;;;;;20.55;34.67;100932.63;5038891;28;45327;-65
2023/01/27 00:16:53;;;;;;;;;7.33;7.33;;;;;20.49;34.49;100922.03;5038408;28;45536;-63
2023/01/27 00:19:18;;;;;;;;;7.33;7.33;;;;;20.44;34.67;100927.38;5038410;28;46065;-62
2023/01/27 00:24:35;;;;;;;;;7.00;6.67;;;;;20.33;34.44;100918.56;5038493;28;45244;-64
2023/01/27 00:27:07;;;;;;;;;8.00;7.33;;;;;20.27;34.53;100923.03;5038600;28;45381;-64
2023/01/27 00:29:34;;;;;;;;;8.00;7.00;;;;;20.23;34.49;100915.97;5038103;28;46111;-63
2023/01/27 00:34:43;;;;;;;;;6.00;6.00;;;;;20.13;34.42;100914.22;5038836;28;45468;-64
2023/01/27 00:37:08;;;;;;;;;8.33;7.33;;;;;20.09;34.58;100912.47;5038464;28;45459;-64
2023/01/27 00:39:34;;;;;;;;;7.33;6.67;;;;;20.05;34.38;100908.97;5038144;28;46176;-65
2023/01/27 00:41:59;;;;;;;;;7.00;6.33;;;;;20.02;34.04;100908.09;5038246;28;45538;-62
2023/01/27 00:44:25;;;;;;;;;6.33;6.33;;;;;19.98;34.36;100903.69;5038349;28;45534;-64
2023/01/27 00:46:50;;;;;;;;;6.00;6.00;;;;;19.94;34.45;100899.28;5038487;28;45469;-65
2023/01/27 00:49:17;;;;;;;;;7.00;6.33;;;;;19.90;34.48;100911.66;5038199;28;45977;-58
2023/01/27 00:51:42;;;;;;;;;7.00;7.00;;;;;19.86;34.76;100904.59;5038513;28;45434;-61
2023/01/27 00:54:08;;;;;;;;;4.33;4.00;;;;;19.83;34.76;100907.25;5038054;28;45476;-63
2023/01/27 00:56:33;;;;;;;;;5.33;4.67;;;;;19.79;34.81;100909.00;5038444;28;45406;-65
2023/01/27 00:58:59;;;;;;;;;7.33;7.00;;;;;19.76;34.40;100910.81;5037776;28;45506;-65
2023/01/27 01:01:26;;;;;;;;;7.00;6.33;;;;;19.74;34.81;100909.94;5037974;28;45247;-66
2023/01/27 01:03:51;;;;;;;;;7.67;7.67;;;;;19.56;34.75;100893.13;5038205;28;45407;-64
2023/01/27 01:06:18;;;;;;;;;1.67;1.67;;;;;19.65;34.87;100911.66;5038389;28;45327;-65
2023/01/27 01:08:44;;;;;;;;;6.33;6.33;;;;;19.64;34.45;100911.69;5038200;28;46200;-66
2023/01/27 01:11:12;;;;;;;;;6.33;6.00;;;;;19.61;34.76;100906.38;5037836;28;45509;-64
2023/01/27 01:13:39;;;;;;;;;7.00;7.00;;;;;19.58;34.60;100914.34;5037987;28;45342;-65
2023/01/27 01:16:08;;;;;;;;;6.67;5.00;;;;;19.55;34.64;100923.16;5037873;28;45425;-65
2023/01/27 01:18:34;;;;;;;;;6.00;5.00;;;;;19.44;34.81;100896.69;5037474;28;46933;-65
2023/01/27 01:21:00;;;;;;;;;8.67;6.33;;;;;19.50;34.73;100909.03;5037484;28;45635;-63
2023/01/27 01:23:25;;;;;;;;;6.00;6.00;;;;;19.47;34.72;100911.69;5037835;28;45228;-65
2023/01/27 01:25:52;;;;;;;;;5.00;5.00;;;;;19.44;34.47;100914.34;5037968;28;45461;-66
2023/01/27 01:28:18;;;;;;;;;6.33;5.33;;;;;19.41;34.64;100906.41;5037551;28;45512;-59
2023/01/27 01:30:43;;;;;;;;;8.00;6.33;;;;;19.37;34.89;100900.22;5037636;28;45496;-65
2023/01/27 01:33:09;;;;;;;;;8.00;6.67;;;;;19.28;34.68;100889.63;5037705;28;45375;-64
2023/01/27 01:35:37;;;;;;;;;5.67;5.00;;;;;19.33;34.72;100894.91;5037873;28;45389;-66
2023/01/27 01:38:02;;;;;;;;;6.33;6.33;;;;;19.30;34.64;100895.81;5037453;28;46297;-66
2023/01/27 01:40:28;;;;;;;;;5.67;5.00;;;;;19.27;34.95;100899.31;5037258;28;45454;-66
2023/01/27 01:43:00;;;;;;;;;6.00;6.00;;;;;19.26;34.48;100902.00;5037579;28;45476;-66
2023/01/27 01:45:32;;;;;;;;;7.00;6.00;;;;;19.22;34.79;100901.09;5037750;28;45228;-67
2023/01/27 01:48:10;;;;;;;;;8.33;7.00;;;;;19.20;35.00;100908.16;5037155;28;45434;-66
2023/01/27 01:50:39;;;;;;;;;6.33;6.33;;;;;19.11;34.58;100883.44;5037148;28;45458;-66
2023/01/27 01:53:05;;;;;;;;;6.67;6.00;;;;;19.15;34.81;100895.81;5037261;28;45375;-67
2023/01/27 01:55:35;;;;;;;;;6.00;6.00;;;;;19.13;34.96;100902.88;5037475;28;45347;-66
2023/01/27 01:58:01;;;;;;;;;7.33;6.00;;;;;19.09;34.91;100891.38;5036935;28;45496;-66
2023/01/27 02:00:27;;;;;;;;;6.67;5.00;;;;;19.06;34.63;100894.06;5037150;28;45311;-66
2023/01/27 02:02:53;;;;;;;;;5.67;5.00;;;;;19.04;34.78;100893.16;5037138;28;45497;-66
2023/01/27 02:05:41;;;;;;;;;5.33;5.33;;;;;19.01;34.89;100898.44;5037598;28;45630;-66
2023/01/27 02:08:16;;;;;;;;;5.00;5.00;;;;;18.99;34.71;100897.56;5036869;28;46038;-66
2023/01/27 02:10:42;;;;;;;;;6.00;5.00;;;;;18.97;34.98;100884.31;5036281;28;45348;-67
2023/01/27 02:13:08;;;;;;;;;8.67;6.00;;;;;18.92;34.87;100886.09;5036937;28;45509;-66
2023/01/27 02:15:33;;;;;;;;;7.00;7.00;;;;;18.92;34.90;100890.47;5037154;28;46125;-62
2023/01/27 02:18:00;;;;;;;;;8.33;7.33;;;;;18.90;34.88;100889.59;5036646;28;46030;-60
2023/01/27 02:20:38;;;;;;;;;6.67;5.33;;;;;18.87;35.06;100886.06;5036792;28;45455;-66
2023/01/27 02:23:23;;;;;;;;;5.67;4.00;;;;;18.85;34.88;100886.94;5036961;28;45535;-64
2023/01/27 02:26:24;;;;;;;;;5.67;5.67;;;;;18.83;35.01;100876.34;5037356;28;45495;-64
2023/01/27 02:28:58;;;;;;;;;4.00;3.67;;;;;18.80;34.78;100880.75;5002934;28;45538;-66
2023/01/27 02:31:24;;;;;;;;;6.00;5.67;;;;;18.76;35.12;100871.94;5036807;28;45419;-66
2023/01/27 02:33:56;;;;;;;;;7.00;6.00;;;;;18.76;35.11;100873.66;5037091;28;45410;-66
2023/01/27 02:36:22;;;;;;;;;6.00;5.00;;;;;18.72;34.81;100864.88;5036893;28;45364;-65
2023/01/27 02:38:51;;;;;;;;;6.67;5.00;;;;;18.71;34.86;100867.50;5036890;28;46225;-65
2023/01/27 02:41:55;;;;;;;;;5.00;4.33;;;;;18.68;35.13;100871.91;5036830;28;45439;-66
2023/01/27 02:44:21;;;;;;;;;5.33;5.00;;;;;18.65;34.83;100863.94;4974922;28;45544;-66
2023/01/27 02:46:47;;;;;;;;;4.67;4.67;;;;;18.64;34.75;100866.59;5023647;28;45473;-66
2023/01/27 02:49:12;;;;;;;;;4.00;3.67;;;;;18.62;34.92;100860.41;5036579;28;45427;-64
2023/01/27 02:51:38;;;;;;;;;6.00;5.00;;;;;18.60;35.24;100856.88;5036458;28;45182;-66
2023/01/27 02:54:04;;;;;;;;;5.67;5.33;;;;;18.26;35.17;100809.19;5036672;28;45171;-64
2023/01/27 02:56:30;;;;;;;;;5.00;4.00;;;;;18.57;34.91;100854.25;5036589;28;45431;-56
2023/01/27 02:58:56;;;;;;;;;5.00;5.00;;;;;18.50;34.84;100855.97;5036328;28;45509;-58
2023/01/27 03:01:23;;;;;;;;;6.33;6.33;;;;;18.52;35.11;100854.22;5036407;28;45251;-64
2023/01/27 03:03:50;;;;;;;;;6.00;5.33;;;;;18.51;35.23;100852.47;5036831;28;45431;-65
2023/01/27 03:06:16;;;;;;;;;5.00;4.00;;;;;18.48;35.02;100856.00;5036617;28;45527;-56
2023/01/27 03:08:42;;;;;;;;;5.00;4.33;;;;;18.47;34.90;100854.22;5036196;28;45554;-57
2023/01/27 03:11:08;;;;;;;;;5.33;5.00;;;;;18.46;35.24;100860.41;5036258;28;45321;-66
2023/01/27 03:13:36;;;;;;;;;5.00;5.00;;;;;18.43;35.17;100856.84;5036442;28;45392;-66
2023/01/27 03:18:48;;;;;;;;;4.33;4.33;;;;;18.35;35.17;100846.25;5036040;28;45809;-65
2023/01/27 03:21:17;;;;;;;;;4.67;4.67;;;;;18.37;35.09;100851.56;5036771;28;45435;-64
2023/01/27 03:23:44;;;;;;;;;5.00;4.33;;;;;18.36;35.08;100855.06;5039636;28;45453;-65
2023/01/27 03:26:11;;;;;;;;;3.67;3.67;;;;;18.35;35.08;100853.31;5039547;28;45579;-65
2023/01/27 03:28:37;;;;;;;;;5.67;5.33;;;;;18.32;35.38;100848.88;5039464;28;45604;-65
2023/01/27 03:31:05;;;;;;;;;6.00;5.00;;;;;18.31;35.27;100857.69;5039429;28;45194;-63
2023/01/27 03:33:31;;;;;;;;;7.00;6.00;;;;;18.29;35.28;100855.03;5039537;28;45434;-66
2023/01/27 03:46:53;;;;;;;;;4.00;4.00;;;;;18.22;35.36;100860.28;5039811;28;45321;-65
2023/01/27 03:49:19;;;;;;;;;3.67;3.33;;;;;18.20;35.44;100867.34;5038947;28;45420;-63
2023/01/27 03:51:44;;;;;;;;;4.00;3.67;;;;;18.19;35.30;100862.94;5039237;28;45364;-66
2023/01/27 03:54:10;;;;;;;;;2.33;2.33;;;;;18.17;35.24;100860.28;5039338;28;45318;-65
2023/01/27 03:56:35;;;;;;;;;3.33;3.33;;;;;18.17;35.05;100873.50;5039483;28;45793;-65
2023/01/27 03:59:01;;;;;;;;;2.67;2.67;;;;;18.08;35.39;100855.88;5038874;28;45565;-65
2023/01/27 04:01:26;;;;;;;;;4.00;4.00;;;;;17.66;35.19;100788.66;5039105;28;45387;-61
2023/01/27 04:06:51;;;;;;;;;3.33;3.00;;;;;18.12;35.16;100875.25;5039221;28;45305;-65
2023/01/27 04:09:24;;;;;;;;;4.00;3.00;;;;;18.05;35.19;100862.88;5031994;28;45378;-64
2023/01/27 04:11:56;;;;;;;;;4.67;4.00;;;;;18.07;35.27;100869.94;5038555;28;45420;-64
2023/01/27 04:14:30;;;;;;;;;3.33;3.33;;;;;18.05;35.35;100866.41;5039099;28;45435;-64
2023/01/27 04:17:02;;;;;;;;;4.00;4.00;;;;;17.81;35.20;100831.91;5039043;28;45315;-65
2023/01/27 04:19:28;;;;;;;;;3.67;3.00;;;;;17.91;35.13;100836.41;5038662;28;45327;-64
2023/01/27 04:21:55;;;;;;;;;2.67;2.67;;;;;17.81;35.29;100826.63;5039045;28;45375;-64
2023/01/27 04:24:23;;;;;;;;;2.67;2.67;;;;;18.00;35.33;100864.63;5038866;28;45322;-65
2023/01/27 04:27:10;;;;;;;;;2.33;2.00;;;;;17.97;35.25;100862.84;5038863;28;45465;-65
2023/01/27 04:29:39;;;;;;;;;3.00;3.00;;;;;17.97;35.29;100861.97;5038321;28;45436;-65
2023/01/27 04:32:06;;;;;;;;;1.00;1.00;;;;;17.95;35.34;100858.44;5037986;28;45320;-65
2023/01/27 04:34:32;;;;;;;;;2.00;2.00;;;;;17.91;35.22;100856.66;5038561;28;45537;-63
2023/01/27 04:36:58;;;;;;;;;4.00;3.00;;;;;17.93;35.18;100863.72;5039153;28;45413;-65
2023/01/27 04:39:24;;;;;;;;;2.00;2.00;;;;;17.78;35.12;100837.16;5038594;28;46184;-65
2023/01/27 04:41:50;;;;;;;;;1.33;1.00;;;;;17.89;35.27;100857.53;5038358;28;45339;-66
2023/01/27 04:44:19;;;;;;;;;2.67;2.67;;;;;17.88;35.33;100853.09;5038466;28;45316;-60
2023/01/27 04:46:45;;;;;;;;;2.00;2.00;;;;;17.88;35.43;100854.88;5038550;28;45238;-66
2023/01/27 04:49:10;;;;;;;;;3.67;3.00;;;;;17.86;35.41;100848.69;5038254;28;46203;-66
2023/01/27 04:51:36;;;;;;;;;5.00;4.00;;;;;17.79;35.51;100831.03;5038080;28;45560;-65
2023/01/27 04:54:05;;;;;;;;;5.67;5.33;;;;;17.87;35.41;100842.53;5038453;28;45310;-66
2023/01/27 04:56:32;;;;;;;;;5.00;5.00;;;;;17.89;35.40;100846.06;5038375;28;45450;-66
2023/01/27 04:59:00;;;;;;;;;4.00;3.33;;;;;17.92;35.43;100840.78;5038046;28;46141;-65
2023/01/27 05:01:26;;;;;;;;;4.67;4.67;;;;;18.00;35.41;100847.00;5038303;28;45371;-64
2023/01/27 05:03:52;;;;;;;;;5.00;3.67;;;;;17.97;35.14;100831.13;5038074;28;45312;-66
2023/01/27 05:06:19;;;;;;;;;4.33;3.67;;;;;18.08;35.16;100847.03;5037949;28;45169;-62
2023/01/27 05:08:44;;;;;;;;;3.00;3.00;;;;;17.87;35.08;100798.50;5037840;28;46239;-66
2023/01/27 05:11:11;;;;;;;;;3.67;3.33;;;;;18.11;35.14;100835.59;5038063;28;45747;-62
2023/01/27 05:13:36;;;;;;;;;3.67;3.67;;;;;18.16;35.08;100834.72;5038016;28;45491;-64
2023/01/27 05:16:12;;;;;;;;;2.00;2.00;;;;;18.18;34.92;100832.97;5037999;28;45265;-65
2023/01/27 05:18:39;;;;;;;;;2.00;2.00;;;;;18.22;35.08;100828.56;5037886;28;46089;-64
2023/01/27 05:21:05;;;;;;;;;4.67;2.67;;;;;18.25;34.99;100828.59;5037641;28;45365;-65
2023/01/27 05:23:34;;;;;;;;;2.00;2.00;;;;;18.27;35.20;100830.34;5038138;28;45323;-58
2023/01/27 05:26:08;;;;;;;;;3.33;3.00;;;;;18.32;35.05;100824.19;5038196;28;45470;-64
2023/01/27 05:28:35;;;;;;;;;2.50;2.00;;;;;18.35;35.51;100830.38;5037469;28;46431;-65
2023/01/27 05:31:06;;;;;;;;;4.00;4.00;;;;;18.37;34.85;100825.97;5037914;28;45522;-62
2023/01/27 05:33:31;;;;;;;;;2.67;2.00;;;;;18.42;34.95;100836.56;5037587;28;45362;-58
2023/01/27 05:35:59;;;;;;;;;2.67;2.67;;;;;18.45;35.05;100829.50;5037848;28;45346;-66
2023/01/27 05:38:24;;;;;;;;;2.67;2.67;;;;;18.48;34.83;100829.53;5037412;28;46301;-65
2023/01/27 05:40:54;;;;;;;;;4.67;2.67;;;;;18.53;35.00;100841.88;5037366;28;45415;-66
2023/01/27 05:43:19;;;;;;;;;2.00;2.00;;;;;18.57;35.01;100830.44;5037121;28;45484;-65
2023/01/27 05:45:45;;;;;;;;;2.00;1.67;;;;;18.60;34.93;100831.31;5037091;28;45415;-66
2023/01/27 05:48:10;;;;;;;;;2.67;1.67;;;;;18.63;34.80;100830.44;5037125;28;46317;-66
2023/01/27 05:50:36;;;;;;;;;2.00;2.00;;;;;18.66;34.79;100836.63;5037417;28;45382;-65
2023/01/27 05:53:01;;;;;;;;;1.33;1.33;;;;;18.69;34.88;100831.31;5037742;28;45449;-64
2023/01/27 05:55:27;;;;;;;;;3.33;2.00;;;;;18.74;34.55;100828.69;5037396;28;45465;-66
2023/01/27 05:57:53;;;;;;;;;2.00;2.00;;;;;18.77;34.70;100827.81;5037098;28;45328;-57
2023/01/27 06:00:19;;;;;;;;;2.67;2.67;;;;;18.81;34.58;100834.91;5037219;28;45224;-66
2023/01/27 06:02:45;;;;;;;;;1.67;1.67;;;;;18.83;34.82;100834.00;5037271;28;45379;-61
2023/01/27 06:05:10;;;;;;;;;2.67;2.67;;;;;18.86;34.61;100841.97;5037359;28;45414;-59
2023/01/27 06:07:36;;;;;;;;;2.67;2.67;;;;;18.91;34.59;100851.66;5036953;28;45741;-63
2023/01/27 06:10:01;;;;;;;;;2.33;2.33;;;;;18.94;34.80;100849.00;5037386;28;45479;-66
2023/01/27 06:12:27;;;;;;;;;2.67;2.67;;;;;18.97;34.53;100851.66;5037215;28;45510;-60
2023/01/27 06:14:54;;;;;;;;;2.67;2.33;;;;;19.00;34.46;100851.66;5037236;28;45513;-62
2023/01/27 06:17:19;;;;;;;;;1.00;1.00;;;;;18.92;34.46;100841.09;5036747;28;45493;-57
2023/01/27 06:19:45;;;;;;;;;2.67;2.00;;;;;19.08;34.39;100855.22;5036946;28;45346;-63
2023/01/27 06:22:10;;;;;;;;;1.00;1.00;;;;;18.83;34.73;100806.66;5037140;28;45318;-65
2023/01/27 06:24:36;;;;;;;;;3.00;2.67;;;;;19.15;34.58;100858.72;5037210;28;45292;-65
2023/01/27 06:27:01;;;;;;;;;2.67;2.67;;;;;19.17;34.69;100859.63;5036993;28;45330;-64
2023/01/27 06:29:27;;;;;;;;;3.67;3.00;;;;;19.20;34.37;100863.16;5036809;28;45435;-65
2023/01/27 06:31:52;;;;;;;;;3.67;2.67;;;;;19.22;34.21;100864.03;5036956;28;45478;-65
2023/01/27 06:34:18;;;;;;;;;2.67;2.33;;;;;19.27;34.64;100866.66;5037115;28;45394;-64
2023/01/27 06:36:43;;;;;;;;;4.00;3.33;;;;;19.28;34.23;100871.97;5036819;28;46075;-67
2023/01/27 06:39:10;;;;;;;;;3.00;3.00;;;;;19.32;34.29;100871.94;5036712;28;46233;-66
2023/01/27 06:41:35;;;;;;;;;2.67;2.00;;;;;19.35;34.61;100870.19;5037166;28;45332;-57
2023/01/27 06:44:01;;;;;;;;;3.00;2.00;;;;;19.38;34.47;100870.19;5037291;28;45313;-66
2023/01/27 06:46:26;;;;;;;;;4.00;3.33;;;;;19.42;34.22;100871.97;5036569;28;45211;-65
2023/01/27 06:48:51;;;;;;;;;3.00;3.00;;;;;19.45;34.16;100876.34;5036814;28;45497;-64
2023/01/27 06:51:17;;;;;;;;;4.00;4.00;;;;;19.47;34.27;100870.16;5036724;28;45296;-66
2023/01/27 06:53:42;;;;;;;;;2.33;2.33;;;;;19.50;34.22;100873.69;5036853;28;45486;-66
2023/01/27 06:56:08;;;;;;;;;3.00;2.00;;;;;19.51;34.30;100879.00;5038542;28;46174;-64
2023/01/27 06:58:34;;;;;;;;;4.00;3.00;;;;;19.54;34.09;100880.78;5040179;28;45495;-66
2023/01/27 07:00:59;;;;;;;;;2.00;2.00;;;;;19.55;34.02;100872.81;5040101;28;45308;-65
2023/01/27 07:03:25;;;;;;;;;3.00;3.00;;;;;19.57;33.90;100889.59;5040000;28;45498;-65
2023/01/27 07:05:52;;;;;;;;;3.00;2.00;;;;;19.59;34.08;100885.16;5039583;28;45277;-66
2023/01/27 07:08:17;;;;;;;;;3.00;2.67;;;;;19.62;33.99;100886.94;5039654;28;45415;-66
2023/01/27 07:10:43;;;;;;;;;1.67;1.00;;;;;19.64;34.06;100885.19;5039198;28;45510;-65
2023/01/27 07:13:11;;;;;;;;;2.67;2.67;;;;;19.64;34.18;100877.22;5039890;28;45400;-64
2023/01/27 07:15:37;;;;;;;;;3.00;2.33;;;;;19.66;34.38;100881.63;5039669;28;46329;-65
2023/01/27 07:18:03;;;;;;;;;3.00;2.00;;;;;19.67;33.81;100877.19;5039809;28;45321;-63
2023/01/27 07:20:30;;;;;;;;;2.67;2.67;;;;;19.69;33.84;100880.72;5039575;28;45450;-56
2023/01/27 07:23:01;;;;;;;;;3.00;2.00;;;;;19.71;34.16;100881.66;5039637;28;45354;-64
2023/01/27 07:25:29;;;;;;;;;2.67;2.67;;;;;19.72;33.99;100880.78;5039236;28;45262;-63
2023/01/27 07:27:58;;;;;;;;;2.00;2.00;;;;;19.74;33.64;100880.78;5039368;28;45490;-56
2023/01/27 07:30:25;;;;;;;;;2.00;2.00;;;;;19.63;34.21;100859.53;5039340;28;45506;-64
2023/01/27 07:32:51;;;;;;;;;3.00;2.00;;;;;19.48;33.69;100834.84;5039578;28;45405;-63
2023/01/27 07:35:17;;;;;;;;;4.00;3.00;;;;;19.78;33.93;100880.75;5039115;28;45738;-63
2023/01/27 07:37:43;;;;;;;;;2.00;1.33;;;;;19.79;33.75;100882.50;5039278;28;45451;-65
2023/01/27 07:40:09;;;;;;;;;3.00;3.00;;;;;19.81;33.71;100887.81;5039177;28;45327;-60
2023/01/27 07:42:35;;;;;;;;;2.00;2.00;;;;;19.82;33.77;100893.13;5039617;28;45309;-65
2023/01/27 07:45:00;;;;;;;;;3.00;3.00;;;;;19.84;33.87;100893.13;5033722;28;46218;-66
2023/01/27 07:47:26;;;;;;;;;2.00;2.00;;;;;19.88;34.03;100897.53;5039179;28;45246;-65
2023/01/27 07:49:51;;;;;;;;;19.33;19.00;;;;;18.77;31.80;100783.69;5027464;28;45455;-80
2023/01/27 07:52:17;;;;;;;;;12.33;12.33;;;;;17.25;33.97;100884.38;4974692;28;45664;-71
2023/01/27 07:54:43;;;;;;;;;25.75;24.25;;;;;15.58;36.40;100909.63;5018605;28;45651;-74
2023/01/27 07:57:08;;;;;;;;;22.75;20.75;;;;;14.13;39.24;100917.47;5017709;28;45488;-73
2023/01/27 07:59:34;;;;;;;;;28.50;25.75;;;;;12.68;41.43;100910.44;5018471;28;45447;-72
2023/01/27 08:01:59;;;;;;;;;18.25;16.25;;;;;11.65;43.59;100923.09;5032553;28;45496;-73
2023/01/27 08:04:26;;;;;;;;;36.25;29.50;;;;;10.50;47.39;100900.91;5039364;28;45990;-73
2023/01/27 08:06:52;;;;;;;;;14.00;13.00;;;;;9.76;49.58;100921.63;5029449;28;45796;-72
2023/01/27 08:09:17;;;;;;;;;12.25;11.75;;;;;9.13;50.77;100924.28;5017646;28;45354;-72
2023/01/27 08:11:43;;;;;;;;;12.00;11.00;;;;;8.41;54.34;100929.88;5017864;28;45416;-72
2023/01/27 08:14:08;;;;;;;;;13.25;11.75;;;;;7.71;53.33;100893.66;5018479;28;45975;-72
2023/01/27 08:16:33;;;;;;;;;15.50;11.75;;;;;7.56;55.46;100936.34;5017498;28;45491;-73
2023/01/27 08:18:59;;;;;;;;;19.25;14.50;;;;;6.88;56.50;100900.91;5017781;28;45500;-72
2023/01/27 08:21:26;;;;;;;;;17.25;14.25;;;;;6.71;57.60;100941.63;5017871;28;45345;-72
2023/01/27 08:23:54;;;;;;;;;18.75;18.75;;;;;6.52;58.86;100949.25;5017118;28;46122;-73
2023/01/27 08:26:20;;;;;;;;;16.00;14.75;;;;;6.28;59.55;100949.72;5017402;28;45506;-72
2023/01/27 08:28:45;;;;;;;;;18.50;16.00;;;;;6.07;60.05;100946.88;5017185;28;45591;-72
2023/01/27 08:31:14;;;;;;;;;30.50;25.75;;;;;5.97;62.14;100960.16;5016909;28;45538;-73
2023/01/27 08:33:41;;;;;;;;;128.00;101.33;;;;;5.86;61.84;100956.91;5017293;28;46142;-73
2023/01/27 08:36:15;;;;;;;;;52.50;39.75;;;;;5.77;62.88;100966.78;5017622;28;45483;-74
2023/01/27 08:38:41;;;;;;;;;21.00;17.50;;;;;5.67;62.69;100956.69;5015474;28;45468;-72
2023/01/27 08:41:13;;;;;;;;;25.50;23.50;;;;;5.72;62.68;100961.34;5017297;28;45429;-73
2023/01/27 08:43:39;;;;;;;;;19.25;17.25;;;;;5.75;62.81;100969.28;5016379;28;45810;-72
2023/01/27 08:46:05;;;;;;;;;33.75;25.75;;;;;5.75;63.27;100969.28;5017045;28;45469;-73
2023/01/27 08:48:32;;;;;;;;;20.00;16.00;;;;;5.71;62.62;100959.56;5016526;28;45522;-73
2023/01/27 08:50:59;;;;;;;;;32.50;29.50;;;;;5.74;62.95;100964.91;5017142;28;45563;-72
2023/01/27 08:53:26;;;;;;;;;50.00;41.75;;;;;5.74;64.29;100964.91;5016993;28;45953;-72
2023/01/27 08:55:53;;;;;;;;;36.75;31.50;;;;;5.76;63.82;100968.47;5017289;28;45301;-72
2023/01/27 08:58:20;;;;;;;;;15.25;15.00;;;;;5.78;62.83;100964.25;5016794;28;45358;-73
2023/01/27 09:00:46;;;;;;;;;14.00;12.00;;;;;5.77;62.62;100969.38;5017055;28;45438;-72
2023/01/27 09:03:12;;;;;;;;;14.50;11.25;;;;;5.75;62.77;100969.28;5016932;28;45434;-72
2023/01/27 09:05:39;;;;;;;;;9.25;9.25;;;;;5.71;63.03;100972.53;5017882;28;45447;-72
2023/01/27 09:08:06;;;;;;;;;11.50;10.50;;;;;5.68;63.08;100976.63;5016147;28;45542;-73
2023/01/27 09:10:35;;;;;;;;;7.75;7.50;;;;;5.33;63.35;100919.44;5017200;28;45424;-72
2023/01/27 09:13:00;;;;;;;;;14.25;12.00;;;;;5.69;63.81;100983.59;5017549;28;46241;-71
2023/01/27 09:15:26;;;;;;;;;11.75;11.75;;;;;5.68;62.62;100976.63;5016664;28;45419;-71
2023/01/27 09:17:51;;;;;;;;;11.25;10.75;;;;;5.63;62.02;100978.06;5016747;28;45358;-70
2023/01/27 09:20:17;;;;;;;;;16.00;14.50;;;;;5.52;62.40;100983.53;5016592;28;45494;-70
2023/01/27 09:22:42;;;;;;;;;13.75;11.75;;;;;5.52;61.69;101016.34;5016582;28;45606;-70
2023/01/27 09:25:13;;;;;;;;;18.50;15.75;;;;;5.51;61.90;100968.81;5016763;28;45437;-71
2023/01/27 09:27:39;;;;;;;;;15.00;14.00;;;;;5.67;62.48;100988.72;5017536;28;45354;-71
2023/01/27 09:30:05;;;;;;;;;15.00;11.75;;;;;5.60;61.40;100983.97;5009597;28;45459;-72
2023/01/27 09:32:31;;;;;;;;;19.25;14.25;;;;;5.66;61.97;100986.03;5017077;28;45522;-73
2023/01/27 09:34:56;;;;;;;;;16.00;13.00;;;;;5.70;61.98;100985.38;5016998;28;45353;-76
2023/01/27 09:37:23;;;;;;;;;14.75;12.75;;;;;5.78;62.01;100979.81;5017505;28;45370;-70
2023/01/27 09:39:55;;;;;;;;;13.75;11.50;;;;;5.91;61.55;100981.41;5016712;28;45261;-72
2023/01/27 09:42:42;;;;;;;;;11.25;10.25;;;;;5.96;60.91;100984.28;5017001;28;46170;-70
2023/01/27 09:45:40;;;;;;;;;11.00;10.00;;;;;5.96;60.73;100989.47;5017233;28;45219;-70
2023/01/27 09:48:53;;;;;;;;;10.00;9.25;;;;;5.96;60.64;100995.53;5017567;28;45195;-74
2023/01/27 09:51:50;;;;;;;;;12.75;9.25;;;;;5.92;60.34;100993.56;4975463;28;45564;-75
2023/01/27 09:54:36;;;;;;;;;11.00;10.00;;;;;5.89;60.61;100995.06;5016887;28;46048;-74
2023/01/27 09:57:25;;;;;;;;;11.00;10.50;;;;;5.96;61.15;100994.66;4999104;28;45547;-71
2023/01/27 10:00:06;;;;;;;;;15.50;13.25;;;;;6.07;60.45;100988.38;5016897;28;45404;-75
2023/01/27 10:02:59;;;;;;;;;15.50;13.25;;;;;6.24;61.18;100994.47;5017279;28;45475;-72
2023/01/27 10:05:47;;;;;;;;;11.25;10.50;;;;;6.47;60.04;100994.84;5016751;28;45262;-71
2023/01/27 10:08:23;;;;;;;;;14.50;11.50;;;;;6.48;59.16;101001.81;5017095;28;45422;-74
2023/01/27 10:11:22;;;;;;;;;12.00;11.25;;;;;6.42;59.96;101004.97;5016905;28;45495;-71
2023/01/27 10:14:08;;;;;;;;;6.00;6.00;;;;;6.52;59.03;101003.75;5017099;28;45622;-72
2023/01/27 10:16:52;;;;;;;;;14.00;12.50;;;;;6.54;59.36;101007.31;5016478;28;45550;-72
2023/01/27 10:19:39;;;;;;;;;16.75;13.75;;;;;6.41;59.70;100998.00;5017083;28;45362;-75
2023/01/27 10:22:16;;;;;;;;;13.00;12.50;;;;;6.57;59.10;101008.38;5014803;28;45365;-72
2023/01/27 10:24:55;;;;;;;;;13.25;11.75;;;;;6.69;59.54;101005.56;5017163;28;45624;-75
2023/01/27 10:27:23;;;;;;;;;10.50;10.00;;;;;6.81;59.00;101004.41;5015924;28;46185;-73
2023/01/27 10:29:57;;;;;;;;;11.25;11.25;;;;;6.86;58.77;101006.41;5016878;28;45321;-74
2023/01/27 10:32:37;;;;;;;;;15.00;12.00;;;;;6.80;58.26;101006.09;5019038;28;45385;-74
2023/01/27 10:35:30;;;;;;;;;18.25;16.00;;;;;6.46;59.14;100949.81;5020240;28;45428;-74
2023/01/27 10:38:14;;;;;;;;;8.50;8.50;;;;;6.76;59.68;101005.06;5020358;28;45540;-74
2023/01/27 10:40:48;;;;;;;;;14.75;12.50;;;;;6.74;59.18;101005.78;5020206;28;45257;-72
2023/01/27 10:43:37;;;;;;;;;15.50;13.50;;;;;6.74;59.17;101006.69;5020292;28;45325;-75
2023/01/27 10:46:10;;;;;;;;;15.50;14.00;;;;;6.77;59.92;101000.75;5013447;28;45653;-75
2023/01/27 10:49:00;;;;;;;;;19.75;16.75;;;;;6.77;59.39;100999.06;5018950;28;46563;-74
2023/01/27 10:51:26;;;;;;;;;11.00;10.25;;;;;6.81;59.58;100996.63;5019745;28;45344;-70
2023/01/27 10:54:02;;;;;;;;;13.25;13.25;;;;;6.79;59.62;100995.66;5019882;28;45320;-70
2023/01/27 10:56:37;;;;;;;;;18.50;15.75;;;;;6.74;59.76;100996.31;5019336;28;45276;-70
2023/01/27 10:59:16;;;;;;;;;6.75;5.50;;;;;6.63;60.61;101001.75;5019518;28;46047;-70
2023/01/27 11:01:50;;;;;;;;;15.50;13.25;;;;;6.53;60.57;101000.34;5019455;28;45597;-72
2023/01/27 11:04:41;;;;;;;;;10.00;9.00;;;;;6.45;60.71;100999.94;5008741;28;45467;-70
2023/01/27 11:07:18;;;;;;;;;14.00;12.00;;;;;6.41;60.63;101004.91;5003426;28;45370;-71
2023/01/27 11:09:48;;;;;;;;;11.25;11.25;;;;;6.38;60.75;100997.81;5006693;28;45487;-72
2023/01/27 11:12:15;;;;;;;;;11.00;11.00;;;;;6.26;60.79;100966.03;5009041;28;45448;-71
2023/01/27 11:14:43;;;;;;;;;11.00;10.00;;;;;6.41;61.02;100985.03;5008485;28;45462;-72
2023/01/27 11:17:24;;;;;;;;;21.00;20.50;;;;;6.31;61.14;100972.38;5009533;28;45426;-70
2023/01/27 11:20:05;;;;;;;;;23.50;21.00;;;;;6.35;60.77;100990.78;5009867;28;45671;-72
2023/01/27 11:22:49;;;;;;;;;31.00;27.50;;;;;6.32;60.41;100987.09;5016141;28;45524;-72
2023/01/27 11:25:15;;;;;;;;;39.75;35.75;;;;;6.25;61.02;100980.72;5016813;28;45436;-72
2023/01/27 11:27:57;;;;;;;;;44.50;39.00;;;;;6.22;60.83;100987.44;5017122;28;45331;-69
2023/01/27 11:31:07;;;;;;;;;27.75;24.75;;;;;6.19;61.57;100977.78;5015026;28;46019;-72
2023/01/27 11:34:28;;;;;;;;;35.75;28.50;;;;;6.08;61.92;100981.47;5016493;28;45314;-70
2023/01/27 11:36:54;;;;;;;;;37.75;32.00;;;;;6.15;61.76;100971.53;4983567;28;45594;-70
2023/01/27 11:39:20;;;;;;;;;35.50;30.25;;;;;6.21;62.12;100970.97;4998317;28;45386;-70
2023/01/27 11:41:55;;;;;;;;;44.25;40.50;;;;;6.28;61.74;100973.06;5016299;28;46271;-72
2023/01/27 11:44:25;;;;;;;;;47.75;39.00;;;;;6.28;61.49;100961.81;4982158;28;45858;-72
2023/01/27 11:46:52;;;;;;;;;21.75;17.00;;;;;5.68;60.86;100860.88;5007834;28;46261;-73
2023/01/27 11:49:33;;;;;;;;;21.25;19.25;;;;;6.38;61.22;100964.97;5025973;28;45462;-70
2023/01/27 11:52:14;;;;;;;;;53.50;45.75;;;;;6.18;61.60;100922.38;5024080;28;45966;-71
2023/01/27 11:54:56;;;;;;;;;14.00;12.00;;;;;6.08;61.74;100911.44;5024251;28;45422;-70
2023/01/27 11:57:23;;;;;;;;;16.25;16.25;;;;;6.32;61.82;100959.44;5024264;28;45580;-73
2023/01/27 11:59:54;;;;;;;;;21.75;18.25;;;;;6.20;61.60;100919.00;5027635;28;45531;-72